createdAt,value
2018-03-28T00:05:16.284Z,7.2
2018-03-28T00:21:53.535Z,7.2
2018-03-28T00:38:30.094Z,7.2
2018-03-28T00:55:06.849Z,6.9
2018-03-28T01:11:43.488Z,6.9
2018-03-28T01:28:20.125Z,6.9
2018-03-28T01:44:57.123Z,6.9
2018-03-28T02:01:34.224Z,6.6
2018-03-28T02:18:09.940Z,6.9
2018-03-28T02:34:46.847Z,6.9
2018-03-28T02:51:24.146Z,6.9
2018-03-28T03:08:00.195Z,6.9
2018-03-28T03:24:36.737Z,6.9
2018-03-28T03:41:13.604Z,6.9
2018-03-28T03:57:50.481Z,6.9
2018-03-28T04:14:28.083Z,6.9
2018-03-28T04:31:04.490Z,7.2
2018-03-28T04:47:41.557Z,7.2
2018-03-28T05:04:18.361Z,7.2
2018-03-28T05:20:54.922Z,6.9
2018-03-28T05:37:32.092Z,7.2
2018-03-28T05:54:08.741Z,7.2
2018-03-28T06:10:45.636Z,7.2
2018-03-28T06:27:22.756Z,7.2
2018-03-28T06:43:59.802Z,7.2
2018-03-28T07:00:36.872Z,7.5
2018-03-28T07:17:14.078Z,7.5
2018-03-28T07:33:50.798Z,7.8
2018-03-28T07:50:28.501Z,7.8
2018-03-28T08:07:05.858Z,8.2
2018-03-28T08:23:43.784Z,8.5
2018-03-28T08:30:23.501Z,9.1
2018-03-28T08:47:02.090Z,9.4
2018-03-28T09:03:41.403Z,10.1
2018-03-28T09:20:20.516Z,10.4
2018-03-28T09:37:00.225Z,10.4
2018-03-28T09:53:39.589Z,10.4
2018-03-28T10:03:39.456Z,11.0
2018-03-28T10:20:19.557Z,11.0
2018-03-28T10:36:59.409Z,10.7
2018-03-28T10:53:39.354Z,11.0
2018-03-28T11:10:19.302Z,11.0
2018-03-28T11:26:59.247Z,11.0
